Time;durP1;ratioP1;P1;durP2;ratioP2;P2;SDS_P1;SDS_P2;PMS_P1;PMS_P2;Temp;Humidity;BMP_temperature;BMP_pressure;BME280_temperature;BME280_humidity;BME280_pressure;Samples;Min_cycle;Max_cycle;Signal;HPM_P1;HPM_P2
2022/12/16 00:00:25;;;;;;;26.23;14.83;;;2.40;99.90;;;;;;7394626;19;20145;-75
2022/12/16 00:02:52;;;;;;;32.10;15.73;;;2.40;99.90;;;;;;7394485;19;20138;-77
2022/12/16 00:05:20;;;;;;;28.60;15.73;;;2.40;99.90;;;;;;7393675;19;20166;-76
2022/12/16 00:07:47;;;;;;;26.57;14.67;;;2.50;99.90;;;;;;7394187;19;20150;-76
2022/12/16 00:10:13;;;;;;;28.30;15.53;;;2.50;99.90;;;;;;7393877;19;20244;-76
2022/12/16 00:12:39;;;;;;;28.97;15.10;;;2.50;99.90;;;;;;7394070;19;20161;-76
2022/12/16 00:15:05;;;;;;;30.37;15.63;;;2.40;99.90;;;;;;7395302;19;20198;-76
2022/12/16 00:17:31;;;;;;;28.90;15.47;;;2.40;99.90;;;;;;7393595;19;20157;-76
2022/12/16 00:19:58;;;;;;;32.97;17.43;;;2.40;99.90;;;;;;7394717;19;20134;-76
2022/12/16 00:22:24;;;;;;;28.07;14.50;;;2.40;99.90;;;;;;7391945;19;20150;-77
2022/12/16 00:24:51;;;;;;;27.57;15.20;;;2.70;99.90;;;;;;7393818;19;20210;-76
2022/12/16 00:27:16;;;;;;;29.47;15.70;;;2.50;99.90;;;;;;7392580;19;20149;-77
2022/12/16 00:29:42;;;;;;;30.00;15.50;;;2.50;99.90;;;;;;7394355;19;20151;-75
2022/12/16 00:32:08;;;;;;;31.60;17.07;;;2.50;99.90;;;;;;7394785;19;20158;-76
2022/12/16 00:34:34;;;;;;;27.10;14.90;;;2.40;99.90;;;;;;7393080;19;20601;-76
2022/12/16 00:36:59;;;;;;;28.33;15.63;;;2.40;99.90;;;;;;7394591;19;20578;-75
2022/12/16 00:39:26;;;;;;;28.27;15.77;;;2.50;99.90;;;;;;7392730;19;20143;-76
2022/12/16 00:41:51;;;;;;;27.00;15.07;;;2.50;99.90;;;;;;7392580;19;20147;-76
2022/12/16 00:44:17;;;;;;;30.00;16.23;;;2.40;99.90;;;;;;7392436;19;20135;-75
2022/12/16 00:46:43;;;;;;;23.63;14.60;;;2.40;99.90;;;;;;7392338;19;20142;-77
2022/12/16 00:49:09;;;;;;;30.90;16.50;;;2.40;99.90;;;;;;7391989;19;20150;-76
2022/12/16 00:51:34;;;;;;;25.93;14.87;;;2.40;99.90;;;;;;7393024;19;20156;-75
2022/12/16 00:54:00;;;;;;;24.77;14.37;;;2.30;99.90;;;;;;7392686;19;20754;-77
2022/12/16 00:56:26;;;;;;;28.23;14.87;;;2.20;99.90;;;;;;7392551;19;20134;-76
2022/12/16 00:58:52;;;;;;;27.97;15.13;;;2.30;99.90;;;;;;7391933;19;20134;-79
2022/12/16 01:01:18;;;;;;;27.53;15.20;;;2.30;99.90;;;;;;7391018;19;20175;-77
2022/12/16 01:03:44;;;;;;;30.83;15.80;;;2.40;99.90;;;;;;7389165;19;20218;-76
2022/12/16 01:06:12;;;;;;;29.20;16.00;;;2.40;99.90;;;;;;7392648;19;20154;-75
2022/12/16 01:08:38;;;;;;;30.57;16.17;;;2.40;99.90;;;;;;7391340;19;20157;-76
2022/12/16 01:11:04;;;;;;;26.70;15.53;;;2.40;99.90;;;;;;7390362;19;20482;-77
2022/12/16 01:13:30;;;;;;;29.23;15.97;;;2.40;99.90;;;;;;7391308;19;20141;-77
2022/12/16 01:16:00;;;;;;;29.43;16.23;;;2.30;99.90;;;;;;7393049;19;20209;-77
2022/12/16 01:18:26;;;;;;;30.27;15.17;;;2.20;99.90;;;;;;7391719;19;20146;-77
2022/12/16 01:20:52;;;;;;;29.37;16.53;;;2.30;99.90;;;;;;7391696;19;20142;-77
2022/12/16 01:23:18;;;;;;;27.07;15.80;;;2.40;99.90;;;;;;7392369;19;20135;-76
2022/12/16 01:25:43;;;;;;;26.77;15.27;;;2.50;99.90;;;;;;7392945;19;20145;-76
2022/12/16 01:28:09;;;;;;;28.93;15.60;;;2.40;99.90;;;;;;7391188;19;20575;-76
2022/12/16 01:30:35;;;;;;;29.97;16.37;;;2.30;99.90;;;;;;7391657;19;20626;-76
2022/12/16 01:33:01;;;;;;;25.53;14.57;;;2.40;99.90;;;;;;7393105;19;20641;-76
2022/12/16 01:35:27;;;;;;;30.53;16.07;;;2.10;99.90;;;;;;7391237;19;20150;-77
2022/12/16 01:37:52;;;;;;;29.93;15.57;;;2.10;99.90;;;;;;7390854;19;20435;-77
2022/12/16 01:40:22;;;;;;;27.87;15.80;;;2.20;99.90;;;;;;7393159;19;20134;-77
2022/12/16 01:42:48;;;;;;;27.00;15.33;;;2.40;99.90;;;;;;7391639;19;20133;-77
2022/12/16 01:45:32;;;;;;;26.00;14.77;;;2.30;99.90;;;;;;7391359;19;20623;-77
2022/12/16 01:48:11;;;;;;;26.60;14.73;;;2.10;99.90;;;;;;7391992;19;20142;-75
2022/12/16 01:50:37;;;;;;;29.60;14.90;;;2.10;99.90;;;;;;7389959;19;20151;-78
2022/12/16 01:53:05;;;;;;;31.17;14.47;;;2.10;99.90;;;;;;7392039;19;20142;-76
2022/12/16 01:55:38;;;;;;;23.80;14.27;;;2.10;99.90;;;;;;7389308;19;20131;-75
2022/12/16 01:58:26;;;;;;;24.27;14.17;;;2.10;99.90;;;;;;7389606;19;20150;-77
2022/12/16 02:00:52;;;;;;;27.93;15.47;;;2.00;99.90;;;;;;7390588;19;20131;-76
2022/12/16 02:03:18;;;;;;;29.77;14.90;;;2.10;99.90;;;;;;7390200;19;20151;-77
2022/12/16 02:05:46;;;;;;;30.50;16.30;;;2.20;99.90;;;;;;7391782;19;20145;-76
2022/12/16 02:08:17;;;;;;;26.63;14.50;;;2.20;99.90;;;;;;7389753;19;20640;-77
2022/12/16 02:10:42;;;;;;;28.57;14.73;;;2.30;99.90;;;;;;7388176;19;20134;-76
2022/12/16 02:13:11;;;;;;;27.43;14.97;;;2.20;99.90;;;;;;7387053;19;20194;-77
2022/12/16 02:15:49;;;;;;;30.70;15.80;;;2.30;99.90;;;;;;7387323;19;20157;-77
2022/12/16 02:18:55;;;;;;;24.87;14.53;;;2.30;99.90;;;;;;7390880;19;20175;-77
2022/12/16 02:21:36;;;;;;;27.70;14.57;;;2.30;99.90;;;;;;7390214;19;20149;-77
2022/12/16 02:24:23;;;;;;;28.37;15.57;;;2.30;99.90;;;;;;7391588;19;20158;-77
2022/12/16 02:27:10;;;;;;;26.87;15.10;;;2.30;99.90;;;;;;7392240;19;20603;-75
2022/12/16 02:30:02;;;;;;;27.43;13.80;;;2.40;99.90;;;;;;7392836;19;20159;-78
2022/12/16 02:32:51;;;;;;;24.50;13.50;;;2.40;99.90;;;;;;7392517;19;20154;-77
2022/12/16 02:35:28;;;;;;;24.97;14.13;;;2.30;99.90;;;;;;7393954;19;20629;-76
2022/12/16 02:38:13;;;;;;;25.10;13.73;;;2.30;99.90;;;;;;7391500;19;20150;-77
2022/12/16 02:40:49;;;;;;;26.77;14.70;;;2.30;99.90;;;;;;7390673;19;20138;-77
2022/12/16 02:43:44;;;;;;;23.80;14.33;;;2.30;99.90;;;;;;7389362;19;20154;-75
2022/12/16 02:46:11;;;;;;;27.00;14.63;;;2.40;99.90;;;;;;7389636;19;20151;-77
2022/12/16 02:48:36;;;;;;;28.20;15.03;;;2.20;99.90;;;;;;7391437;19;20524;-77
2022/12/16 02:51:02;;;;;;;27.47;14.73;;;2.20;99.90;;;;;;7389439;19;20198;-77
2022/12/16 02:53:32;;;;;;;26.87;14.90;;;2.20;99.90;;;;;;7389272;19;20150;-77
2022/12/16 02:56:26;;;;;;;26.27;15.33;;;2.20;99.90;;;;;;7388199;19;20163;-76
2022/12/16 02:59:17;;;;;;;25.77;14.60;;;2.10;99.90;;;;;;7392339;19;20139;-76
2022/12/16 03:01:52;;;;;;;28.37;14.10;;;2.10;99.90;;;;;;7390029;19;20198;-75
2022/12/16 03:04:30;;;;;;;25.40;14.90;;;1.80;99.90;;;;;;7389030;19;20879;-77
2022/12/16 03:06:59;;;;;;;24.17;14.47;;;1.80;99.90;;;;;;7387734;19;20195;-76
2022/12/16 03:09:28;;;;;;;26.63;14.93;;;2.00;99.90;;;;;;7389447;19;20619;-76
2022/12/16 03:11:57;;;;;;;23.90;14.07;;;2.00;99.90;;;;;;7392039;19;20135;-77
2022/12/16 03:14:27;;;;;;;25.70;14.67;;;2.10;99.90;;;;;;7386359;19;20501;-76
2022/12/16 03:16:54;;;;;;;25.47;14.50;;;1.50;99.90;;;;;;7391161;19;20142;-76
2022/12/16 03:19:21;;;;;;;26.50;13.80;;;1.80;99.90;;;;;;7388016;19;20206;-76
2022/12/16 03:21:57;;;;;;;24.47;13.63;;;2.00;99.90;;;;;;7384717;19;20143;-77
2022/12/16 03:24:24;;;;;;;23.60;13.77;;;2.10;99.90;;;;;;7391112;19;20213;-77
2022/12/16 03:27:10;;;;;;;26.10;14.47;;;2.10;99.90;;;;;;7394968;19;20131;-77
2022/12/16 03:29:39;;;;;;;24.73;14.57;;;2.10;99.90;;;;;;7397720;19;20151;-77
2022/12/16 03:32:23;;;;;;;23.20;13.57;;;2.10;99.90;;;;;;7396995;19;20171;-77
2022/12/16 03:34:58;;;;;;;21.30;12.77;;;2.20;99.90;;;;;;7396579;19;20478;-76
2022/12/16 03:37:30;;;;;;;24.93;13.93;;;2.10;99.90;;;;;;7396141;19;20156;-77
2022/12/16 03:39:59;;;;;;;24.23;13.43;;;1.80;99.90;;;;;;7396566;19;20173;-77
2022/12/16 03:42:25;;;;;;;25.07;14.27;;;2.00;99.90;;;;;;7395068;19;20557;-76
2022/12/16 03:44:51;;;;;;;25.20;13.63;;;2.10;99.90;;;;;;7396202;19;20225;-77
2022/12/16 03:47:17;;;;;;;27.23;13.57;;;2.20;99.90;;;;;;7397161;19;20631;-77
2022/12/16 03:49:44;;;;;;;28.97;14.60;;;2.30;99.90;;;;;;7396236;19;20509;-76
2022/12/16 03:52:10;;;;;;;25.20;14.03;;;2.30;99.90;;;;;;7393921;19;20154;-77
2022/12/16 03:54:36;;;;;;;26.60;14.87;;;2.30;99.90;;;;;;7392873;19;20175;-75
2022/12/16 03:57:02;;;;;;;26.40;13.70;;;2.30;99.90;;;;;;7394517;19;20227;-77
2022/12/16 03:59:28;;;;;;;21.23;12.47;;;2.30;99.90;;;;;;7394808;19;20167;-76
2022/12/16 04:01:54;;;;;;;22.20;13.17;;;2.20;99.90;;;;;;7391571;19;20525;-77
2022/12/16 04:04:20;;;;;;;24.87;13.67;;;2.20;99.90;;;;;;7395586;19;20158;-76
2022/12/16 04:07:18;;;;;;;24.00;13.07;;;2.20;99.90;;;;;;7397355;19;20134;-77
2022/12/16 04:09:31;;;;;;;23.27;12.33;;;2.10;99.90;;;;;;7396674;19;20153;-76
2022/12/16 04:25:47;;;;;;;22.67;11.43;;;2.10;99.90;;;;;;7394980;19;20233;-78
2022/12/16 04:28:14;;;;;;;21.83;11.47;;;1.90;99.90;;;;;;7393792;19;20634;-77
2022/12/16 04:30:40;;;;;;;23.53;12.13;;;1.90;99.90;;;;;;7395689;19;20139;-76
